sensor_id;sensor_type;location;lat;lon;timestamp;temperature;humidity
57132;DHT22;43005;52.922;5.742;2023-09-08T00:02:19;21.50;99.90
57132;DHT22;43005;52.922;5.742;2023-09-08T00:04:46;21.40;99.90
57132;DHT22;43005;52.922;5.742;2023-09-08T00:07:12;21.40;99.90
57132;DHT22;43005;52.922;5.742;2023-09-08T00:09:39;21.40;99.90
57132;DHT22;43005;52.922;5.742;2023-09-08T00:12:06;21.40;99.90
57132;DHT22;43005;52.922;5.742;2023-09-08T00:14:33;21.30;99.90
57132;DHT22;43005;52.922;5.742;2023-09-08T00:17:02;21.30;99.90
57132;DHT22;43005;52.922;5.742;2023-09-08T00:19:32;21.30;99.90
57132;DHT22;43005;52.922;5.742;2023-09-08T00:21:59;21.30;99.90
57132;DHT22;43005;52.922;5.742;2023-09-08T00:24:26;21.20;99.90
57132;DHT22;43005;52.922;5.742;2023-09-08T00:26:53;21.20;99.90
57132;DHT22;43005;52.922;5.742;2023-09-08T00:29:19;21.20;99.90
57132;DHT22;43005;52.922;5.742;2023-09-08T00:31:46;21.20;99.90
57132;DHT22;43005;52.922;5.742;2023-09-08T00:34:13;21.20;99.90
57132;DHT22;43005;52.922;5.742;2023-09-08T00:36:41;21.20;99.90
57132;DHT22;43005;52.922;5.742;2023-09-08T00:39:08;21.10;99.90
57132;DHT22;43005;52.922;5.742;2023-09-08T00:41:34;21.10;99.90
57132;DHT22;43005;52.922;5.742;2023-09-08T00:44:01;21.10;99.90
57132;DHT22;43005;52.922;5.742;2023-09-08T00:46:28;21.10;99.90
57132;DHT22;43005;52.922;5.742;2023-09-08T00:48:56;21.10;99.90
57132;DHT22;43005;52.922;5.742;2023-09-08T00:51:22;21.00;99.90
57132;DHT22;43005;52.922;5.742;2023-09-08T00:53:50;21.10;99.90
57132;DHT22;43005;52.922;5.742;2023-09-08T00:56:17;21.00;99.90
57132;DHT22;43005;52.922;5.742;2023-09-08T00:58:44;21.00;99.90
57132;DHT22;43005;52.922;5.742;2023-09-08T01:01:11;21.00;99.90
57132;DHT22;43005;52.922;5.742;2023-09-08T01:03:38;21.00;99.90
57132;DHT22;43005;52.922;5.742;2023-09-08T01:06:05;21.00;99.90
57132;DHT22;43005;52.922;5.742;2023-09-08T01:08:32;20.90;99.90
57132;DHT22;43005;52.922;5.742;2023-09-08T01:11:02;20.90;99.90
57132;DHT22;43005;52.922;5.742;2023-09-08T01:13:28;20.90;99.90
57132;DHT22;43005;52.922;5.742;2023-09-08T01:15:55;20.90;99.90
57132;DHT22;43005;52.922;5.742;2023-09-08T01:18:22;20.80;99.90
57132;DHT22;43005;52.922;5.742;2023-09-08T01:20:55;20.80;99.90
57132;DHT22;43005;52.922;5.742;2023-09-08T01:23:24;20.80;99.90
57132;DHT22;43005;52.922;5.742;2023-09-08T01:25:54;20.80;99.90
57132;DHT22;43005;52.922;5.742;2023-09-08T01:28:21;20.80;99.90
57132;DHT22;43005;52.922;5.742;2023-09-08T01:30:49;20.80;99.90
57132;DHT22;43005;52.922;5.742;2023-09-08T01:33:16;20.80;99.90
57132;DHT22;43005;52.922;5.742;2023-09-08T01:35:43;20.80;99.90
57132;DHT22;43005;52.922;5.742;2023-09-08T01:38:10;20.70;99.90
57132;DHT22;43005;52.922;5.742;2023-09-08T01:40:37;20.70;99.90
57132;DHT22;43005;52.922;5.742;2023-09-08T01:43:05;20.70;99.90
57132;DHT22;43005;52.922;5.742;2023-09-08T01:45:32;20.70;99.90
57132;DHT22;43005;52.922;5.742;2023-09-08T01:47:58;20.70;99.90
57132;DHT22;43005;52.922;5.742;2023-09-08T01:50:25;20.70;99.90
57132;DHT22;43005;52.922;5.742;2023-09-08T01:52:52;20.70;99.90
57132;DHT22;43005;52.922;5.742;2023-09-08T01:55:18;20.70;99.90
57132;DHT22;43005;52.922;5.742;2023-09-08T01:57:45;20.70;99.90
57132;DHT22;43005;52.922;5.742;2023-09-08T02:00:14;20.70;99.90
57132;DHT22;43005;52.922;5.742;2023-09-08T02:02:41;20.70;99.90
57132;DHT22;43005;52.922;5.742;2023-09-08T02:05:08;20.70;99.90
57132;DHT22;43005;52.922;5.742;2023-09-08T02:07:34;20.60;99.90
57132;DHT22;43005;52.922;5.742;2023-09-08T02:10:01;20.60;99.90
57132;DHT22;43005;52.922;5.742;2023-09-08T02:12:28;20.60;99.90
57132;DHT22;43005;52.922;5.742;2023-09-08T02:14:54;20.60;99.90
57132;DHT22;43005;52.922;5.742;2023-09-08T02:17:23;20.60;99.90
57132;DHT22;43005;52.922;5.742;2023-09-08T02:19:49;20.60;99.90
57132;DHT22;43005;52.922;5.742;2023-09-08T02:22:16;20.50;99.90
57132;DHT22;43005;52.922;5.742;2023-09-08T02:24:43;20.50;99.90
57132;DHT22;43005;52.922;5.742;2023-09-08T02:27:09;20.50;99.90
57132;DHT22;43005;52.922;5.742;2023-09-08T02:29:36;20.40;99.90
57132;DHT22;43005;52.922;5.742;2023-09-08T02:32:03;20.40;99.90
57132;DHT22;43005;52.922;5.742;2023-09-08T02:34:33;20.40;99.90
57132;DHT22;43005;52.922;5.742;2023-09-08T02:37:02;20.40;99.90
57132;DHT22;43005;52.922;5.742;2023-09-08T02:39:28;20.30;99.90
57132;DHT22;43005;52.922;5.742;2023-09-08T02:41:55;20.30;99.90
57132;DHT22;43005;52.922;5.742;2023-09-08T02:44:22;20.30;99.90
57132;DHT22;43005;52.922;5.742;2023-09-08T02:46:48;20.30;99.90
57132;DHT22;43005;52.922;5.742;2023-09-08T02:49:15;20.20;99.90
57132;DHT22;43005;52.922;5.742;2023-09-08T02:51:43;20.20;99.90
57132;DHT22;43005;52.922;5.742;2023-09-08T02:54:10;20.20;99.90
57132;DHT22;43005;52.922;5.742;2023-09-08T02:56:37;20.10;99.90
57132;DHT22;43005;52.922;5.742;2023-09-08T02:59:03;20.10;99.90
57132;DHT22;43005;52.922;5.742;2023-09-08T03:01:30;20.10;99.90
57132;DHT22;43005;52.922;5.742;2023-09-08T03:03:57;20.10;99.90
57132;DHT22;43005;52.922;5.742;2023-09-08T03:06:24;20.10;99.90
57132;DHT22;43005;52.922;5.742;2023-09-08T03:08:52;20.10;99.90
57132;DHT22;43005;52.922;5.742;2023-09-08T03:11:19;20.00;99.90
57132;DHT22;43005;52.922;5.742;2023-09-08T03:13:45;20.00;99.90
57132;DHT22;43005;52.922;5.742;2023-09-08T03:16:12;20.00;99.90
57132;DHT22;43005;52.922;5.742;2023-09-08T03:18:39;20.00;99.90
57132;DHT22;43005;52.922;5.742;2023-09-08T03:21:06;19.90;99.90
57132;DHT22;43005;52.922;5.742;2023-09-08T03:23:35;19.90;99.90
57132;DHT22;43005;52.922;5.742;2023-09-08T03:26:04;19.90;99.90
57132;DHT22;43005;52.922;5.742;2023-09-08T03:28:31;19.90;99.90
57132;DHT22;43005;52.922;5.742;2023-09-08T03:30:58;19.90;99.90
57132;DHT22;43005;52.922;5.742;2023-09-08T03:33:25;19.80;99.90
57132;DHT22;43005;52.922;5.742;2023-09-08T03:35:51;19.80;99.90
57132;DHT22;43005;52.922;5.742;2023-09-08T03:38:18;19.80;99.90
57132;DHT22;43005;52.922;5.742;2023-09-08T03:40:45;19.80;99.90
57132;DHT22;43005;52.922;5.742;2023-09-08T03:43:13;19.70;99.90
57132;DHT22;43005;52.922;5.742;2023-09-08T03:45:40;19.70;99.90
57132;DHT22;43005;52.922;5.742;2023-09-08T03:48:07;19.70;99.90
57132;DHT22;43005;52.922;5.742;2023-09-08T03:50:34;19.70;99.90
57132;DHT22;43005;52.922;5.742;2023-09-08T03:53:00;19.70;99.90
57132;DHT22;43005;52.922;5.742;2023-09-08T03:55:27;19.70;99.90
57132;DHT22;43005;52.922;5.742;2023-09-08T03:57:54;19.70;99.90
57132;DHT22;43005;52.922;5.742;2023-09-08T04:00:22;19.70;99.90
57132;DHT22;43005;52.922;5.742;2023-09-08T04:02:49;19.60;99.90
57132;DHT22;43005;52.922;5.742;2023-09-08T04:05:16;19.60;99.90
57132;DHT22;43005;52.922;5.742;2023-09-08T04:07:43;19.60;99.90
57132;DHT22;43005;52.922;5.742;2023-09-08T04:10:10;19.60;99.90
57132;DHT22;43005;52.922;5.742;2023-09-08T04:12:38;19.60;99.90
57132;DHT22;43005;52.922;5.742;2023-09-08T04:15:05;19.60;99.90
57132;DHT22;43005;52.922;5.742;2023-09-08T04:17:33;19.60;99.90
57132;DHT22;43005;52.922;5.742;2023-09-08T04:20:01;19.60;99.90
57132;DHT22;43005;52.922;5.742;2023-09-08T04:22:30;19.50;99.90
57132;DHT22;43005;52.922;5.742;2023-09-08T04:24:56;19.50;99.90
57132;DHT22;43005;52.922;5.742;2023-09-08T04:27:23;19.50;99.90
57132;DHT22;43005;52.922;5.742;2023-09-08T04:29:50;19.50;99.90
57132;DHT22;43005;52.922;5.742;2023-09-08T04:32:17;19.40;99.90
57132;DHT22;43005;52.922;5.742;2023-09-08T04:34:45;19.40;99.90
57132;DHT22;43005;52.922;5.742;2023-09-08T04:37:11;19.40;99.90
57132;DHT22;43005;52.922;5.742;2023-09-08T04:39:39;19.40;99.90
57132;DHT22;43005;52.922;5.742;2023-09-08T04:42:06;19.40;99.90
57132;DHT22;43005;52.922;5.742;2023-09-08T04:44:33;19.40;99.90
57132;DHT22;43005;52.922;5.742;2023-09-08T04:46:59;19.40;99.90
57132;DHT22;43005;52.922;5.742;2023-09-08T04:49:26;19.40;99.90
57132;DHT22;43005;52.922;5.742;2023-09-08T04:51:55;19.30;99.90
57132;DHT22;43005;52.922;5.742;2023-09-08T04:54:22;19.30;99.90
57132;DHT22;43005;52.922;5.742;2023-09-08T04:56:52;19.30;99.90
57132;DHT22;43005;52.922;5.742;2023-09-08T04:59:18;19.30;99.90
57132;DHT22;43005;52.922;5.742;2023-09-08T05:01:45;19.30;99.90
57132;DHT22;43005;52.922;5.742;2023-09-08T05:04:12;19.30;99.90
57132;DHT22;43005;52.922;5.742;2023-09-08T05:06:38;19.30;99.90
57132;DHT22;43005;52.922;5.742;2023-09-08T05:09:06;19.30;99.90
57132;DHT22;43005;52.922;5.742;2023-09-08T05:11:33;19.30;99.90
57132;DHT22;43005;52.922;5.742;2023-09-08T05:14:00;19.30;99.90
57132;DHT22;43005;52.922;5.742;2023-09-08T05:16:26;19.30;99.90
57132;DHT22;43005;52.922;5.742;2023-09-08T05:19:05;19.20;99.90
57132;DHT22;43005;52.922;5.742;2023-09-08T05:21:31;19.20;99.90
57132;DHT22;43005;52.922;5.742;2023-09-08T05:24:02;19.20;99.90
57132;DHT22;43005;52.922;5.742;2023-09-08T05:26:30;19.20;99.90
57132;DHT22;43005;52.922;5.742;2023-09-08T05:28:57;19.20;99.90
57132;DHT22;43005;52.922;5.742;2023-09-08T05:31:24;19.20;99.90
57132;DHT22;43005;52.922;5.742;2023-09-08T05:33:51;19.20;99.90
57132;DHT22;43005;52.922;5.742;2023-09-08T05:36:18;19.20;99.90
57132;DHT22;43005;52.922;5.742;2023-09-08T05:38:45;19.20;99.90
57132;DHT22;43005;52.922;5.742;2023-09-08T05:41:11;19.20;99.90
57132;DHT22;43005;52.922;5.742;2023-09-08T05:43:40;19.30;99.90
57132;DHT22;43005;52.922;5.742;2023-09-08T05:46:06;19.30;99.90
57132;DHT22;43005;52.922;5.742;2023-09-08T05:48:33;19.30;99.90
57132;DHT22;43005;52.922;5.742;2023-09-08T05:51:00;19.30;99.90
57132;DHT22;43005;52.922;5.742;2023-09-08T05:53:27;19.30;99.90
57132;DHT22;43005;52.922;5.742;2023-09-08T05:55:54;19.40;99.90
57132;DHT22;43005;52.922;5.742;2023-09-08T05:58:21;19.40;99.90
57132;DHT22;43005;52.922;5.742;2023-09-08T06:00:50;19.40;99.90
57132;DHT22;43005;52.922;5.742;2023-09-08T06:03:17;19.50;99.90
57132;DHT22;43005;52.922;5.742;2023-09-08T06:05:44;19.50;99.90
57132;DHT22;43005;52.922;5.742;2023-09-08T06:08:11;19.50;99.90
57132;DHT22;43005;52.922;5.742;2023-09-08T06:10:37;19.60;99.90
57132;DHT22;43005;52.922;5.742;2023-09-08T06:13:04;19.60;99.90
57132;DHT22;43005;52.922;5.742;2023-09-08T06:15:31;19.70;99.90
57132;DHT22;43005;52.922;5.742;2023-09-08T06:17:59;19.80;99.90
57132;DHT22;43005;52.922;5.742;2023-09-08T06:20:25;19.80;99.90
57132;DHT22;43005;52.922;5.742;2023-09-08T06:22:52;19.90;99.90
57132;DHT22;43005;52.922;5.742;2023-09-08T06:25:19;19.90;99.90
57132;DHT22;43005;52.922;5.742;2023-09-08T06:27:46;20.00;99.90
57132;DHT22;43005;52.922;5.742;2023-09-08T06:30:12;20.00;99.90
57132;DHT22;43005;52.922;5.742;2023-09-08T06:32:41;20.00;99.90
57132;DHT22;43005;52.922;5.742;2023-09-08T06:35:11;20.10;99.90
57132;DHT22;43005;52.922;5.742;2023-09-08T06:37:38;20.20;99.90
57132;DHT22;43005;52.922;5.742;2023-09-08T06:40:05;20.30;99.90
57132;DHT22;43005;52.922;5.742;2023-09-08T06:42:32;20.40;99.90
57132;DHT22;43005;52.922;5.742;2023-09-08T06:44:59;20.50;99.90
57132;DHT22;43005;52.922;5.742;2023-09-08T06:47:26;20.70;99.90
57132;DHT22;43005;52.922;5.742;2023-09-08T06:49:52;20.90;99.90
57132;DHT22;43005;52.922;5.742;2023-09-08T06:52:20;21.00;99.90
57132;DHT22;43005;52.922;5.742;2023-09-08T06:54:47;21.20;99.90
57132;DHT22;43005;52.922;5.742;2023-09-08T06:57:14;21.50;99.90
57132;DHT22;43005;52.922;5.742;2023-09-08T06:59:41;21.70;99.90
57132;DHT22;43005;52.922;5.742;2023-09-08T07:02:08;21.80;99.90
57132;DHT22;43005;52.922;5.742;2023-09-08T07:04:35;21.80;99.90
57132;DHT22;43005;52.922;5.742;2023-09-08T07:07:01;21.90;99.90
57132;DHT22;43005;52.922;5.742;2023-09-08T07:09:34;22.10;99.90
57132;DHT22;43005;52.922;5.742;2023-09-08T07:12:02;22.20;99.90
57132;DHT22;43005;52.922;5.742;2023-09-08T07:14:29;22.30;99.90
57132;DHT22;43005;52.922;5.742;2023-09-08T07:16:56;22.50;99.90
57132;DHT22;43005;52.922;5.742;2023-09-08T07:19:22;22.60;99.90
57132;DHT22;43005;52.922;5.742;2023-09-08T07:21:49;22.90;99.90
57132;DHT22;43005;52.922;5.742;2023-09-08T07:24:16;23.00;99.90
57132;DHT22;43005;52.922;5.742;2023-09-08T07:26:44;23.30;98.90
57132;DHT22;43005;52.922;5.742;2023-09-08T07:29:11;23.30;97.00
57132;DHT22;43005;52.922;5.742;2023-09-08T07:31:37;23.30;96.20
57132;DHT22;43005;52.922;5.742;2023-09-08T07:34:04;23.30;95.40
57132;DHT22;43005;52.922;5.742;2023-09-08T07:36:31;23.40;95.30
57132;DHT22;43005;52.922;5.742;2023-09-08T07:38:58;23.40;94.40
57132;DHT22;43005;52.922;5.742;2023-09-08T07:41:24;23.60;95.40
57132;DHT22;43005;52.922;5.742;2023-09-08T07:43:52;23.80;94.60
57132;DHT22;43005;52.922;5.742;2023-09-08T07:46:19;24.00;94.10
57132;DHT22;43005;52.922;5.742;2023-09-08T07:48:46;24.10;92.20
57132;DHT22;43005;52.922;5.742;2023-09-08T07:51:13;24.20;91.90
57132;DHT22;43005;52.922;5.742;2023-09-08T07:53:39;24.20;91.30
57132;DHT22;43005;52.922;5.742;2023-09-08T07:56:06;24.30;92.20
57132;DHT22;43005;52.922;5.742;2023-09-08T07:58:33;24.50;91.50
57132;DHT22;43005;52.922;5.742;2023-09-08T08:01:01;24.60;89.40
57132;DHT22;43005;52.922;5.742;2023-09-08T08:03:28;24.70;88.20
57132;DHT22;43005;52.922;5.742;2023-09-08T08:05:56;24.80;88.50
57132;DHT22;43005;52.922;5.742;2023-09-08T08:08:23;24.90;86.10
57132;DHT22;43005;52.922;5.742;2023-09-08T08:10:49;25.10;86.70
57132;DHT22;43005;52.922;5.742;2023-09-08T08:13:16;25.10;81.50
57132;DHT22;43005;52.922;5.742;2023-09-08T08:15:44;25.30;82.60
57132;DHT22;43005;52.922;5.742;2023-09-08T08:18:13;25.30;81.20
57132;DHT22;43005;52.922;5.742;2023-09-08T08:20:40;25.50;82.00
57132;DHT22;43005;52.922;5.742;2023-09-08T08:23:07;25.60;80.50
57132;DHT22;43005;52.922;5.742;2023-09-08T08:25:34;25.90;80.40
57132;DHT22;43005;52.922;5.742;2023-09-08T08:28:00;26.20;79.10
57132;DHT22;43005;52.922;5.742;2023-09-08T08:30:28;26.40;77.60
57132;DHT22;43005;52.922;5.742;2023-09-08T08:32:55;26.70;76.00
57132;DHT22;43005;52.922;5.742;2023-09-08T08:35:23;26.80;73.10
57132;DHT22;43005;52.922;5.742;2023-09-08T08:37:49;26.90;73.00
57132;DHT22;43005;52.922;5.742;2023-09-08T08:40:16;27.00;72.10
57132;DHT22;43005;52.922;5.742;2023-09-08T08:42:43;27.10;70.30
57132;DHT22;43005;52.922;5.742;2023-09-08T08:45:10;27.00;70.10
57132;DHT22;43005;52.922;5.742;2023-09-08T08:47:37;26.80;69.00
57132;DHT22;43005;52.922;5.742;2023-09-08T08:50:04;26.70;69.40
57132;DHT22;43005;52.922;5.742;2023-09-08T08:52:32;26.60;70.40
57132;DHT22;43005;52.922;5.742;2023-09-08T08:54:59;26.70;70.60
57132;DHT22;43005;52.922;5.742;2023-09-08T08:57:26;26.80;69.60
57132;DHT22;43005;52.922;5.742;2023-09-08T08:59:53;26.70;68.70
57132;DHT22;43005;52.922;5.742;2023-09-08T09:02:21;26.60;69.90
57132;DHT22;43005;52.922;5.742;2023-09-08T09:04:48;26.60;70.00
57132;DHT22;43005;52.922;5.742;2023-09-08T09:07:15;26.80;70.80
57132;DHT22;43005;52.922;5.742;2023-09-08T09:09:44;26.80;69.80
57132;DHT22;43005;52.922;5.742;2023-09-08T09:12:11;27.00;70.90
57132;DHT22;43005;52.922;5.742;2023-09-08T09:14:38;27.20;69.70
57132;DHT22;43005;52.922;5.742;2023-09-08T09:17:04;27.30;69.20
57132;DHT22;43005;52.922;5.742;2023-09-08T09:19:31;27.40;69.70
57132;DHT22;43005;52.922;5.742;2023-09-08T09:21:58;27.50;68.70
57132;DHT22;43005;52.922;5.742;2023-09-08T09:24:29;27.50;68.80
57132;DHT22;43005;52.922;5.742;2023-09-08T09:26:57;27.60;68.50
57132;DHT22;43005;52.922;5.742;2023-09-08T09:29:24;27.80;67.00
57132;DHT22;43005;52.922;5.742;2023-09-08T09:31:51;27.90;67.50
57132;DHT22;43005;52.922;5.742;2023-09-08T09:34:19;28.00;66.60
57132;DHT22;43005;52.922;5.742;2023-09-08T09:36:47;28.10;65.80
57132;DHT22;43005;52.922;5.742;2023-09-08T09:39:16;28.20;64.70
57132;DHT22;43005;52.922;5.742;2023-09-08T09:41:42;28.10;65.00
57132;DHT22;43005;52.922;5.742;2023-09-08T09:44:10;28.10;65.10
57132;DHT22;43005;52.922;5.742;2023-09-08T09:46:37;28.20;65.40
57132;DHT22;43005;52.922;5.742;2023-09-08T09:49:04;28.40;65.60
57132;DHT22;43005;52.922;5.742;2023-09-08T09:51:31;28.30;63.70
57132;DHT22;43005;52.922;5.742;2023-09-08T09:53:58;28.40;64.60
57132;DHT22;43005;52.922;5.742;2023-09-08T09:56:24;28.60;63.90
57132;DHT22;43005;52.922;5.742;2023-09-08T09:58:52;28.80;64.00
57132;DHT22;43005;52.922;5.742;2023-09-08T10:01:20;28.90;62.50
57132;DHT22;43005;52.922;5.742;2023-09-08T10:03:49;29.00;62.10
57132;DHT22;43005;52.922;5.742;2023-09-08T10:06:15;29.00;62.40
57132;DHT22;43005;52.922;5.742;2023-09-08T10:08:42;29.20;62.40
57132;DHT22;43005;52.922;5.742;2023-09-08T10:11:09;29.30;61.00
57132;DHT22;43005;52.922;5.742;2023-09-08T10:13:38;29.20;60.60
57132;DHT22;43005;52.922;5.742;2023-09-08T10:16:06;29.30;60.90
57132;DHT22;43005;52.922;5.742;2023-09-08T10:18:36;29.40;60.80
57132;DHT22;43005;52.922;5.742;2023-09-08T10:21:04;29.60;60.60
57132;DHT22;43005;52.922;5.742;2023-09-08T10:23:35;29.70;60.80
57132;DHT22;43005;52.922;5.742;2023-09-08T10:26:03;29.90;60.70
57132;DHT22;43005;52.922;5.742;2023-09-08T10:28:32;30.10;60.00
57132;DHT22;43005;52.922;5.742;2023-09-08T10:30:59;30.30;58.70
57132;DHT22;43005;52.922;5.742;2023-09-08T10:33:26;30.30;58.00
57132;DHT22;43005;52.922;5.742;2023-09-08T10:35:54;30.40;58.00
57132;DHT22;43005;52.922;5.742;2023-09-08T10:38:22;30.40;57.00
57132;DHT22;43005;52.922;5.742;2023-09-08T10:40:49;30.50;56.80
57132;DHT22;43005;52.922;5.742;2023-09-08T10:43:16;30.70;56.90
57132;DHT22;43005;52.922;5.742;2023-09-08T10:45:44;30.70;56.80
57132;DHT22;43005;52.922;5.742;2023-09-08T10:48:11;30.90;56.80
57132;DHT22;43005;52.922;5.742;2023-09-08T10:50:40;31.00;56.50
57132;DHT22;43005;52.922;5.742;2023-09-08T10:53:09;31.20;54.60
57132;DHT22;43005;52.922;5.742;2023-09-08T10:55:39;31.30;54.10
57132;DHT22;43005;52.922;5.742;2023-09-08T10:58:11;31.30;53.70
57132;DHT22;43005;52.922;5.742;2023-09-08T11:00:44;31.40;54.50
57132;DHT22;43005;52.922;5.742;2023-09-08T11:03:12;31.50;53.80
57132;DHT22;43005;52.922;5.742;2023-09-08T11:05:38;31.60;53.20
57132;DHT22;43005;52.922;5.742;2023-09-08T11:08:05;31.60;52.60
57132;DHT22;43005;52.922;5.742;2023-09-08T11:10:33;31.70;52.40
57132;DHT22;43005;52.922;5.742;2023-09-08T11:13:04;31.80;53.70
57132;DHT22;43005;52.922;5.742;2023-09-08T11:15:31;32.00;52.40
57132;DHT22;43005;52.922;5.742;2023-09-08T11:18:02;32.10;52.50
57132;DHT22;43005;52.922;5.742;2023-09-08T11:20:30;32.20;51.90
57132;DHT22;43005;52.922;5.742;2023-09-08T11:22:57;32.00;51.20
57132;DHT22;43005;52.922;5.742;2023-09-08T11:25:26;31.90;51.40
57132;DHT22;43005;52.922;5.742;2023-09-08T11:27:54;31.90;51.90
57132;DHT22;43005;52.922;5.742;2023-09-08T11:30:21;32.10;51.80
57132;DHT22;43005;52.922;5.742;2023-09-08T11:32:47;32.20;51.40
57132;DHT22;43005;52.922;5.742;2023-09-08T11:35:14;32.40;51.70
57132;DHT22;43005;52.922;5.742;2023-09-08T11:37:41;32.50;51.00
57132;DHT22;43005;52.922;5.742;2023-09-08T11:40:09;32.60;50.60
57132;DHT22;43005;52.922;5.742;2023-09-08T11:42:38;32.70;50.60
57132;DHT22;43005;52.922;5.742;2023-09-08T11:45:11;32.80;50.50
57132;DHT22;43005;52.922;5.742;2023-09-08T11:47:41;32.80;50.10
57132;DHT22;43005;52.922;5.742;2023-09-08T11:50:09;32.90;49.70
57132;DHT22;43005;52.922;5.742;2023-09-08T11:52:37;32.90;49.60
57132;DHT22;43005;52.922;5.742;2023-09-08T11:55:04;33.00;49.40
57132;DHT22;43005;52.922;5.742;2023-09-08T11:57:32;32.90;49.10
57132;DHT22;43005;52.922;5.742;2023-09-08T11:59:58;33.00;49.20
57132;DHT22;43005;52.922;5.742;2023-09-08T12:02:27;33.00;48.60
57132;DHT22;43005;52.922;5.742;2023-09-08T12:04:54;33.00;48.20
57132;DHT22;43005;52.922;5.742;2023-09-08T12:07:20;33.10;48.30
57132;DHT22;43005;52.922;5.742;2023-09-08T12:09:47;33.20;48.50
57132;DHT22;43005;52.922;5.742;2023-09-08T12:12:14;33.30;48.10
57132;DHT22;43005;52.922;5.742;2023-09-08T12:14:41;33.40;48.00
57132;DHT22;43005;52.922;5.742;2023-09-08T12:17:08;33.60;47.50
57132;DHT22;43005;52.922;5.742;2023-09-08T12:19:36;33.50;47.80
57132;DHT22;43005;52.922;5.742;2023-09-08T12:22:06;33.40;47.20
57132;DHT22;43005;52.922;5.742;2023-09-08T12:24:45;33.10;47.10
57132;DHT22;43005;52.922;5.742;2023-09-08T12:27:12;32.70;47.50
57132;DHT22;43005;52.922;5.742;2023-09-08T12:29:40;32.50;48.00
57132;DHT22;43005;52.922;5.742;2023-09-08T12:32:07;32.20;48.60
57132;DHT22;43005;52.922;5.742;2023-09-08T12:34:34;32.00;49.40
57132;DHT22;43005;52.922;5.742;2023-09-08T12:37:02;32.00;49.60
57132;DHT22;43005;52.922;5.742;2023-09-08T12:39:32;32.00;49.70
57132;DHT22;43005;52.922;5.742;2023-09-08T12:41:59;31.90;49.30
57132;DHT22;43005;52.922;5.742;2023-09-08T12:44:26;31.80;49.70
57132;DHT22;43005;52.922;5.742;2023-09-08T12:46:53;31.70;49.80
57132;DHT22;43005;52.922;5.742;2023-09-08T12:49:20;31.50;50.20
57132;DHT22;43005;52.922;5.742;2023-09-08T12:51:46;31.50;50.30
57132;DHT22;43005;52.922;5.742;2023-09-08T12:54:14;31.30;50.50
57132;DHT22;43005;52.922;5.742;2023-09-08T12:56:41;31.10;51.20
57132;DHT22;43005;52.922;5.742;2023-09-08T12:59:08;31.10;50.90
57132;DHT22;43005;52.922;5.742;2023-09-08T13:01:34;31.10;51.10
57132;DHT22;43005;52.922;5.742;2023-09-08T13:04:01;31.00;51.20
57132;DHT22;43005;52.922;5.742;2023-09-08T13:06:28;30.90;51.00
57132;DHT22;43005;52.922;5.742;2023-09-08T13:08:55;30.80;51.30
57132;DHT22;43005;52.922;5.742;2023-09-08T13:11:25;30.70;51.50
57132;DHT22;43005;52.922;5.742;2023-09-08T13:13:53;30.70;51.40
57132;DHT22;43005;52.922;5.742;2023-09-08T13:16:20;30.70;51.00
57132;DHT22;43005;52.922;5.742;2023-09-08T13:18:46;30.50;51.50
57132;DHT22;43005;52.922;5.742;2023-09-08T13:21:14;30.50;51.80
57132;DHT22;43005;52.922;5.742;2023-09-08T13:23:41;30.50;52.20
57132;DHT22;43005;52.922;5.742;2023-09-08T13:26:08;30.60;52.00
57132;DHT22;43005;52.922;5.742;2023-09-08T13:28:36;30.50;52.20
57132;DHT22;43005;52.922;5.742;2023-09-08T13:31:02;30.50;51.80
57132;DHT22;43005;52.922;5.742;2023-09-08T13:33:29;30.50;52.30
57132;DHT22;43005;52.922;5.742;2023-09-08T13:35:56;30.60;52.90
57132;DHT22;43005;52.922;5.742;2023-09-08T13:38:23;30.70;53.20
57132;DHT22;43005;52.922;5.742;2023-09-08T13:40:49;30.80;53.80
57132;DHT22;43005;52.922;5.742;2023-09-08T13:43:16;30.90;53.70
57132;DHT22;43005;52.922;5.742;2023-09-08T13:45:44;30.90;53.60
57132;DHT22;43005;52.922;5.742;2023-09-08T13:48:11;31.00;53.30
57132;DHT22;43005;52.922;5.742;2023-09-08T13:50:37;31.00;52.80
57132;DHT22;43005;52.922;5.742;2023-09-08T13:53:04;31.20;53.30
57132;DHT22;43005;52.922;5.742;2023-09-08T13:55:31;31.30;53.00
57132;DHT22;43005;52.922;5.742;2023-09-08T13:57:58;31.30;52.90
57132;DHT22;43005;52.922;5.742;2023-09-08T14:00:25;31.30;52.50
57132;DHT22;43005;52.922;5.742;2023-09-08T14:02:53;31.30;52.20
57132;DHT22;43005;52.922;5.742;2023-09-08T14:05:19;31.20;52.80
57132;DHT22;43005;52.922;5.742;2023-09-08T14:07:46;31.20;52.70
57132;DHT22;43005;52.922;5.742;2023-09-08T14:10:13;31.30;52.90
57132;DHT22;43005;52.922;5.742;2023-09-08T14:12:39;31.30;53.00
57132;DHT22;43005;52.922;5.742;2023-09-08T14:15:07;31.30;52.20
57132;DHT22;43005;52.922;5.742;2023-09-08T14:17:34;31.30;52.50
57132;DHT22;43005;52.922;5.742;2023-09-08T14:20:02;31.20;52.50
57132;DHT22;43005;52.922;5.742;2023-09-08T14:22:31;31.20;52.50
57132;DHT22;43005;52.922;5.742;2023-09-08T14:24:57;31.20;53.10
57132;DHT22;43005;52.922;5.742;2023-09-08T14:27:24;31.20;53.50
57132;DHT22;43005;52.922;5.742;2023-09-08T14:29:51;31.10;53.10
57132;DHT22;43005;52.922;5.742;2023-09-08T14:32:17;31.10;53.10
57132;DHT22;43005;52.922;5.742;2023-09-08T14:34:44;30.90;53.20
57132;DHT22;43005;52.922;5.742;2023-09-08T14:37:12;30.90;53.50
57132;DHT22;43005;52.922;5.742;2023-09-08T14:39:39;30.80;53.80
57132;DHT22;43005;52.922;5.742;2023-09-08T14:42:06;30.80;54.30
57132;DHT22;43005;52.922;5.742;2023-09-08T14:44:33;30.70;54.60
57132;DHT22;43005;52.922;5.742;2023-09-08T14:47:00;30.70;55.00
57132;DHT22;43005;52.922;5.742;2023-09-08T14:49:26;30.70;55.20
57132;DHT22;43005;52.922;5.742;2023-09-08T14:51:53;30.70;55.10
57132;DHT22;43005;52.922;5.742;2023-09-08T14:54:21;30.60;55.00
57132;DHT22;43005;52.922;5.742;2023-09-08T14:56:48;30.60;54.70
57132;DHT22;43005;52.922;5.742;2023-09-08T14:59:14;30.60;55.00
57132;DHT22;43005;52.922;5.742;2023-09-08T15:01:41;30.60;54.80
57132;DHT22;43005;52.922;5.742;2023-09-08T15:04:10;30.60;55.50
57132;DHT22;43005;52.922;5.742;2023-09-08T15:06:37;30.50;55.80
57132;DHT22;43005;52.922;5.742;2023-09-08T15:09:03;30.50;55.50
57132;DHT22;43005;52.922;5.742;2023-09-08T15:11:32;30.50;55.80
57132;DHT22;43005;52.922;5.742;2023-09-08T15:13:58;30.40;54.80
57132;DHT22;43005;52.922;5.742;2023-09-08T15:16:25;30.40;54.70
57132;DHT22;43005;52.922;5.742;2023-09-08T15:18:52;30.30;54.90
57132;DHT22;43005;52.922;5.742;2023-09-08T15:21:18;30.30;55.20
57132;DHT22;43005;52.922;5.742;2023-09-08T15:23:51;30.30;55.30
57132;DHT22;43005;52.922;5.742;2023-09-08T15:26:17;30.30;55.50
57132;DHT22;43005;52.922;5.742;2023-09-08T15:28:45;30.20;55.60
57132;DHT22;43005;52.922;5.742;2023-09-08T15:31:15;30.20;56.10